sensor_id;sensor_type;location;lat;lon;timestamp;pressure;altitude;pressure_sealevel;temperature;humidity
51530;BME280;37613;51.788;21.582;2022-08-18T00:03:07;99809.81;;;18.19;86.35
51530;BME280;37613;51.788;21.582;2022-08-18T00:07:18;99808.33;;;18.14;86.66
51530;BME280;37613;51.788;21.582;2022-08-18T00:11:21;99805.36;;;18.07;86.89
51530;BME280;37613;51.788;21.582;2022-08-18T00:15:24;99810.48;;;18.03;87.31
51530;BME280;37613;51.788;21.582;2022-08-18T00:19:26;99816.00;;;17.99;87.10
51530;BME280;37613;51.788;21.582;2022-08-18T00:23:28;99815.10;;;17.97;87.13
51530;BME280;37613;51.788;21.582;2022-08-18T00:27:33;99819.66;;;17.94;87.19
51530;BME280;37613;51.788;21.582;2022-08-18T00:31:35;99821.52;;;17.92;87.22
51530;BME280;37613;51.788;21.582;2022-08-18T00:35:37;99820.96;;;17.90;87.48
51530;BME280;37613;51.788;21.582;2022-08-18T00:39:40;99828.62;;;17.88;87.57
51530;BME280;37613;51.788;21.582;2022-08-18T00:43:48;99832.98;;;17.87;87.72
51530;BME280;37613;51.788;21.582;2022-08-18T00:47:50;99840.13;;;17.88;87.74
51530;BME280;37613;51.788;21.582;2022-08-18T00:51:53;99839.85;;;17.89;87.65
51530;BME280;37613;51.788;21.582;2022-08-18T00:55:59;99839.44;;;17.89;87.60
51530;BME280;37613;51.788;21.582;2022-08-18T01:00:06;99843.05;;;17.89;87.66
51530;BME280;37613;51.788;21.582;2022-08-18T01:05:10;99845.50;;;17.87;87.68
51530;BME280;37613;51.788;21.582;2022-08-18T01:08:51;99853.55;;;17.86;87.74
51530;BME280;37613;51.788;21.582;2022-08-18T01:12:55;99851.01;;;17.83;87.64
51530;BME280;37613;51.788;21.582;2022-08-18T01:16:57;99856.45;;;17.80;87.64
51530;BME280;37613;51.788;21.582;2022-08-18T01:21:24;99858.42;;;17.77;87.63
51530;BME280;37613;51.788;21.582;2022-08-18T01:25:49;99863.14;;;17.74;87.66
51530;BME280;37613;51.788;21.582;2022-08-18T01:30:07;99865.26;;;17.71;87.76
51530;BME280;37613;51.788;21.582;2022-08-18T01:34:11;99869.38;;;17.69;87.78
51530;BME280;37613;51.788;21.582;2022-08-18T01:38:14;99870.15;;;17.65;87.76
51530;BME280;37613;51.788;21.582;2022-08-18T01:42:16;99873.71;;;17.61;87.83
51530;BME280;37613;51.788;21.582;2022-08-18T01:46:19;99878.86;;;17.58;87.81
51530;BME280;37613;51.788;21.582;2022-08-18T01:50:21;99883.80;;;17.53;87.80
51530;BME280;37613;51.788;21.582;2022-08-18T01:54:23;99885.45;;;17.47;87.71
51530;BME280;37613;51.788;21.582;2022-08-18T01:58:34;99889.60;;;17.40;87.75
51530;BME280;37613;51.788;21.582;2022-08-18T02:02:37;99895.38;;;17.34;87.78
51530;BME280;37613;51.788;21.582;2022-08-18T02:06:39;99895.38;;;17.32;87.95
51530;BME280;37613;51.788;21.582;2022-08-18T02:10:41;99891.02;;;17.29;87.82
51530;BME280;37613;51.788;21.582;2022-08-18T02:14:43;99883.11;;;17.23;87.89
51530;BME280;37613;51.788;21.582;2022-08-18T02:34:34;99896.41;;;17.09;88.09
51530;BME280;37613;51.788;21.582;2022-08-18T02:38:37;99898.27;;;17.07;88.08
51530;BME280;37613;51.788;21.582;2022-08-18T02:42:41;99891.94;;;17.05;88.04
51530;BME280;37613;51.788;21.582;2022-08-18T02:46:43;99886.42;;;17.02;88.05
51530;BME280;37613;51.788;21.582;2022-08-18T02:50:45;99889.85;;;17.00;88.17
51530;BME280;37613;51.788;21.582;2022-08-18T02:54:48;99900.00;;;16.97;88.18
51530;BME280;37613;51.788;21.582;2022-08-18T02:59:01;99897.80;;;16.93;88.15
51530;BME280;37613;51.788;21.582;2022-08-18T03:03:05;99901.34;;;16.90;88.27
51530;BME280;37613;51.788;21.582;2022-08-18T03:07:07;99899.92;;;16.87;88.25
51530;BME280;37613;51.788;21.582;2022-08-18T03:11:09;99902.25;;;16.81;88.31
51530;BME280;37613;51.788;21.582;2022-08-18T03:15:11;99897.36;;;16.74;88.38
51530;BME280;37613;51.788;21.582;2022-08-18T03:19:14;99904.30;;;16.68;88.68
51530;BME280;37613;51.788;21.582;2022-08-18T03:23:17;99906.20;;;16.65;88.77
51530;BME280;37613;51.788;21.582;2022-08-18T03:27:19;99904.55;;;16.65;88.89
51530;BME280;37613;51.788;21.582;2022-08-18T03:31:23;99908.45;;;16.64;88.89
51530;BME280;37613;51.788;21.582;2022-08-18T03:35:25;99909.60;;;16.63;89.04
51530;BME280;37613;51.788;21.582;2022-08-18T03:39:27;99915.27;;;16.63;89.06
51530;BME280;37613;51.788;21.582;2022-08-18T03:43:29;99922.32;;;16.65;89.22
51530;BME280;37613;51.788;21.582;2022-08-18T03:47:32;99923.79;;;16.67;89.28
51530;BME280;37613;51.788;21.582;2022-08-18T03:51:33;99924.61;;;16.69;89.43
51530;BME280;37613;51.788;21.582;2022-08-18T03:55:39;99927.06;;;16.76;89.59
51530;BME280;37613;51.788;21.582;2022-08-18T03:59:41;99932.89;;;16.81;89.54
51530;BME280;37613;51.788;21.582;2022-08-18T04:03:46;99935.05;;;16.86;89.61
51530;BME280;37613;51.788;21.582;2022-08-18T04:07:47;99937.08;;;17.11;90.36
51530;BME280;37613;51.788;21.582;2022-08-18T04:11:49;99937.06;;;17.97;91.89
51530;BME280;37613;51.788;21.582;2022-08-18T04:15:51;99940.54;;;19.04;92.11
51530;BME280;37613;51.788;21.582;2022-08-18T04:19:55;99940.00;;;19.98;91.77
51530;BME280;37613;51.788;21.582;2022-08-18T04:23:58;99941.41;;;20.93;91.09
51530;BME280;37613;51.788;21.582;2022-08-18T04:28:05;99945.67;;;21.70;89.72
51530;BME280;37613;51.788;21.582;2022-08-18T04:32:07;99945.07;;;22.43;88.31
51530;BME280;37613;51.788;21.582;2022-08-18T04:36:13;99951.80;;;23.11;87.80
51530;BME280;37613;51.788;21.582;2022-08-18T04:40:15;99953.05;;;23.75;86.62
51530;BME280;37613;51.788;21.582;2022-08-18T04:44:17;99948.61;;;24.32;84.62
51530;BME280;37613;51.788;21.582;2022-08-18T04:48:19;99947.38;;;24.77;83.80
51530;BME280;37613;51.788;21.582;2022-08-18T04:52:21;99945.30;;;25.33;82.48
51530;BME280;37613;51.788;21.582;2022-08-18T04:56:42;99944.96;;;25.88;82.01
51530;BME280;37613;51.788;21.582;2022-08-18T05:00:45;99945.73;;;26.34;79.72
51530;BME280;37613;51.788;21.582;2022-08-18T05:04:47;99935.84;;;27.14;79.62
51530;BME280;37613;51.788;21.582;2022-08-18T05:08:49;99933.00;;;27.86;77.34
51530;BME280;37613;51.788;21.582;2022-08-18T05:12:52;99924.77;;;28.35;75.35
51530;BME280;37613;51.788;21.582;2022-08-18T05:16:57;99920.92;;;28.56;69.10
51530;BME280;37613;51.788;21.582;2022-08-18T05:20:59;99920.30;;;28.81;70.08
51530;BME280;37613;51.788;21.582;2022-08-18T05:25:01;99931.55;;;29.59;69.83
51530;BME280;37613;51.788;21.582;2022-08-18T05:29:03;99934.83;;;30.37;69.23
51530;BME280;37613;51.788;21.582;2022-08-18T05:33:06;99937.11;;;31.34;68.76
51530;BME280;37613;51.788;21.582;2022-08-18T05:37:18;99925.57;;;32.23;66.60
51530;BME280;37613;51.788;21.582;2022-08-18T05:41:24;99927.61;;;32.79;63.73
51530;BME280;37613;51.788;21.582;2022-08-18T05:45:28;99924.92;;;32.59;61.83
51530;BME280;37613;51.788;21.582;2022-08-18T05:49:30;99931.59;;;32.41;61.68
51530;BME280;37613;51.788;21.582;2022-08-18T05:53:32;99931.74;;;31.44;62.04
51530;BME280;37613;51.788;21.582;2022-08-18T05:58:00;99943.28;;;30.64;61.15
51530;BME280;37613;51.788;21.582;2022-08-18T06:02:17;99939.51;;;29.87;60.33
51530;BME280;37613;51.788;21.582;2022-08-18T06:06:25;99939.55;;;29.31;60.04
51530;BME280;37613;51.788;21.582;2022-08-18T06:10:31;99939.31;;;28.84;60.02
51530;BME280;37613;51.788;21.582;2022-08-18T06:14:36;99934.23;;;28.49;59.87
51530;BME280;37613;51.788;21.582;2022-08-18T06:18:55;99934.92;;;28.35;59.94
51530;BME280;37613;51.788;21.582;2022-08-18T06:23:22;99943.16;;;28.17;60.32
51530;BME280;37613;51.788;21.582;2022-08-18T06:31:44;99952.42;;;27.88;60.68
51530;BME280;37613;51.788;21.582;2022-08-18T06:35:51;99946.52;;;27.80;60.63
51530;BME280;37613;51.788;21.582;2022-08-18T06:39:55;99949.88;;;27.81;60.74
51530;BME280;37613;51.788;21.582;2022-08-18T06:44:07;99953.97;;;27.89;61.11
51530;BME280;37613;51.788;21.582;2022-08-18T06:56:45;99940.73;;;27.79;60.92
51530;BME280;37613;51.788;21.582;2022-08-18T07:09:20;99949.84;;;27.72;60.13
51530;BME280;37613;51.788;21.582;2022-08-18T07:13:26;99950.29;;;27.76;60.07
51530;BME280;37613;51.788;21.582;2022-08-18T07:17:31;99952.81;;;27.83;60.59
51530;BME280;37613;51.788;21.582;2022-08-18T07:21:38;99961.24;;;28.07;60.03
51530;BME280;37613;51.788;21.582;2022-08-18T07:25:44;99961.31;;;28.28;60.00
51530;BME280;37613;51.788;21.582;2022-08-18T07:30:08;99955.95;;;28.39;57.67
51530;BME280;37613;51.788;21.582;2022-08-18T07:34:19;99951.27;;;28.36;58.65
51530;BME280;37613;51.788;21.582;2022-08-18T07:38:34;99954.72;;;28.46;58.89
51530;BME280;37613;51.788;21.582;2022-08-18T07:43:00;99951.92;;;28.72;58.86
51530;BME280;37613;51.788;21.582;2022-08-18T07:47:11;99951.96;;;28.88;58.71
51530;BME280;37613;51.788;21.582;2022-08-18T07:55:49;99962.31;;;28.81;57.82
51530;BME280;37613;51.788;21.582;2022-08-18T08:04:21;99970.63;;;29.08;57.65
51530;BME280;37613;51.788;21.582;2022-08-18T08:08:39;99972.30;;;29.24;57.10
51530;BME280;37613;51.788;21.582;2022-08-18T08:16:50;99981.31;;;29.29;57.11
51530;BME280;37613;51.788;21.582;2022-08-18T08:21:09;99981.09;;;29.36;56.65
51530;BME280;37613;51.788;21.582;2022-08-18T08:25:23;99976.38;;;29.49;56.53
51530;BME280;37613;51.788;21.582;2022-08-18T08:33:53;99966.83;;;29.52;56.46
51530;BME280;37613;51.788;21.582;2022-08-18T08:38:45;99965.92;;;29.56;56.31
51530;BME280;37613;51.788;21.582;2022-08-18T08:42:37;99969.05;;;29.69;56.46
51530;BME280;37613;51.788;21.582;2022-08-18T08:47:04;99974.35;;;29.89;55.49
51530;BME280;37613;51.788;21.582;2022-08-18T08:51:28;99974.75;;;29.86;54.95
51530;BME280;37613;51.788;21.582;2022-08-18T08:55:42;99975.27;;;29.95;55.30
51530;BME280;37613;51.788;21.582;2022-08-18T08:59:47;99972.55;;;30.02;54.68
51530;BME280;37613;51.788;21.582;2022-08-18T09:12:42;99962.52;;;29.79;53.70
51530;BME280;37613;51.788;21.582;2022-08-18T09:29:53;99949.00;;;30.22;53.01
51530;BME280;37613;51.788;21.582;2022-08-18T09:38:51;99942.09;;;30.23;51.09
51530;BME280;37613;51.788;21.582;2022-08-18T09:43:34;99936.86;;;30.15;52.22
51530;BME280;37613;51.788;21.582;2022-08-18T09:51:39;99938.98;;;30.33;52.08
51530;BME280;37613;51.788;21.582;2022-08-18T09:55:52;99937.10;;;30.47;52.04
51530;BME280;37613;51.788;21.582;2022-08-18T10:00:26;99937.31;;;30.52;51.46
51530;BME280;37613;51.788;21.582;2022-08-18T10:04:34;99939.54;;;30.49;51.54
51530;BME280;37613;51.788;21.582;2022-08-18T10:09:06;99944.40;;;30.41;51.74
51530;BME280;37613;51.788;21.582;2022-08-18T10:18:33;99939.91;;;30.34;52.13
51530;BME280;37613;51.788;21.582;2022-08-18T10:22:09;99942.91;;;30.23;52.13
51530;BME280;37613;51.788;21.582;2022-08-18T10:34:44;99936.67;;;30.13;51.75
51530;BME280;37613;51.788;21.582;2022-08-18T10:38:49;99942.13;;;30.27;52.01
51530;BME280;37613;51.788;21.582;2022-08-18T10:43:12;99944.70;;;30.51;51.91
51530;BME280;37613;51.788;21.582;2022-08-18T10:47:29;99943.16;;;30.74;51.51
51530;BME280;37613;51.788;21.582;2022-08-18T10:51:55;99948.09;;;30.80;50.65
51530;BME280;37613;51.788;21.582;2022-08-18T11:05:09;99950.52;;;31.07;50.78
51530;BME280;37613;51.788;21.582;2022-08-18T11:09:12;99957.92;;;30.74;49.76
51530;BME280;37613;51.788;21.582;2022-08-18T11:13:26;99956.68;;;30.41;50.00
51530;BME280;37613;51.788;21.582;2022-08-18T11:22:27;99954.02;;;29.95;50.79
51530;BME280;37613;51.788;21.582;2022-08-18T11:26:31;99954.17;;;29.82;50.66
51530;BME280;37613;51.788;21.582;2022-08-18T11:30:36;99955.73;;;29.72;50.89
51530;BME280;37613;51.788;21.582;2022-08-18T11:34:58;99952.86;;;29.66;50.56
51530;BME280;37613;51.788;21.582;2022-08-18T11:39:00;99951.33;;;29.59;51.09
51530;BME280;37613;51.788;21.582;2022-08-18T11:47:20;99944.12;;;29.59;50.96
51530;BME280;37613;51.788;21.582;2022-08-18T11:51:31;99938.39;;;29.57;51.27
51530;BME280;37613;51.788;21.582;2022-08-18T11:55:33;99934.52;;;29.79;51.48
51530;BME280;37613;51.788;21.582;2022-08-18T11:59:35;99927.81;;;29.93;50.92
51530;BME280;37613;51.788;21.582;2022-08-18T12:03:41;99924.41;;;29.75;51.07
51530;BME280;37613;51.788;21.582;2022-08-18T12:07:45;99919.97;;;29.66;51.31
51530;BME280;37613;51.788;21.582;2022-08-18T12:12:02;99916.27;;;29.71;51.51
51530;BME280;37613;51.788;21.582;2022-08-18T12:16:15;99907.29;;;29.68;51.52
51530;BME280;37613;51.788;21.582;2022-08-18T12:20:17;99909.55;;;29.69;51.78
51530;BME280;37613;51.788;21.582;2022-08-18T12:24:25;99903.48;;;29.86;51.69
51530;BME280;37613;51.788;21.582;2022-08-18T12:28:27;99902.85;;;29.97;50.32
51530;BME280;37613;51.788;21.582;2022-08-18T12:32:31;99897.59;;;29.99;50.48
51530;BME280;37613;51.788;21.582;2022-08-18T12:36:34;99889.63;;;30.01;49.83
51530;BME280;37613;51.788;21.582;2022-08-18T12:40:37;99883.84;;;30.10;49.83
51530;BME280;37613;51.788;21.582;2022-08-18T12:44:39;99877.35;;;30.14;49.79
51530;BME280;37613;51.788;21.582;2022-08-18T12:48:42;99871.59;;;30.21;49.44
51530;BME280;37613;51.788;21.582;2022-08-18T12:52:48;99873.08;;;30.37;49.71
51530;BME280;37613;51.788;21.582;2022-08-18T12:56:55;99869.98;;;30.46;49.27
51530;BME280;37613;51.788;21.582;2022-08-18T13:00:58;99867.49;;;30.46;47.96
51530;BME280;37613;51.788;21.582;2022-08-18T13:05:11;99871.39;;;30.29;48.60
51530;BME280;37613;51.788;21.582;2022-08-18T13:09:13;99868.64;;;30.20;48.41
51530;BME280;37613;51.788;21.582;2022-08-18T13:13:18;99870.40;;;30.10;48.51
51530;BME280;37613;51.788;21.582;2022-08-18T13:17:20;99867.48;;;30.05;49.03
51530;BME280;37613;51.788;21.582;2022-08-18T13:21:27;99862.59;;;30.05;49.30
51530;BME280;37613;51.788;21.582;2022-08-18T13:25:32;99860.60;;;30.05;49.34
51530;BME280;37613;51.788;21.582;2022-08-18T13:29:35;99858.08;;;30.03;48.69
51530;BME280;37613;51.788;21.582;2022-08-18T13:33:36;99854.66;;;29.99;49.05
51530;BME280;37613;51.788;21.582;2022-08-18T13:37:39;99847.78;;;30.07;49.33
51530;BME280;37613;51.788;21.582;2022-08-18T13:41:42;99849.63;;;30.16;49.15
51530;BME280;37613;51.788;21.582;2022-08-18T13:45:44;99841.64;;;30.13;48.95
51530;BME280;37613;51.788;21.582;2022-08-18T13:49:49;99840.44;;;30.14;48.95
51530;BME280;37613;51.788;21.582;2022-08-18T13:53:52;99839.11;;;30.20;48.53
51530;BME280;37613;51.788;21.582;2022-08-18T13:57:54;99834.59;;;30.17;48.19
51530;BME280;37613;51.788;21.582;2022-08-18T14:01:58;99829.36;;;30.16;48.37
51530;BME280;37613;51.788;21.582;2022-08-18T14:06:03;99831.66;;;30.07;48.25
51530;BME280;37613;51.788;21.582;2022-08-18T14:10:05;99825.26;;;29.89;48.26
51530;BME280;37613;51.788;21.582;2022-08-18T14:14:08;99822.73;;;29.84;48.63
51530;BME280;37613;51.788;21.582;2022-08-18T14:18:10;99821.11;;;29.85;48.34
51530;BME280;37613;51.788;21.582;2022-08-18T14:22:12;99816.45;;;29.89;48.70
51530;BME280;37613;51.788;21.582;2022-08-18T14:26:32;99817.97;;;29.95;47.87
51530;BME280;37613;51.788;21.582;2022-08-18T14:30:49;99819.37;;;29.94;48.44
51530;BME280;37613;51.788;21.582;2022-08-18T14:34:52;99822.34;;;29.90;48.11
51530;BME280;37613;51.788;21.582;2022-08-18T14:38:54;99830.44;;;29.90;48.77
51530;BME280;37613;51.788;21.582;2022-08-18T14:42:56;99833.39;;;29.90;48.76
51530;BME280;37613;51.788;21.582;2022-08-18T14:46:59;99835.94;;;29.85;48.94
51530;BME280;37613;51.788;21.582;2022-08-18T14:51:00;99831.75;;;29.81;48.98
51530;BME280;37613;51.788;21.582;2022-08-18T14:55:03;99830.98;;;29.80;49.28
51530;BME280;37613;51.788;21.582;2022-08-18T14:59:05;99828.72;;;29.79;49.08
51530;BME280;37613;51.788;21.582;2022-08-18T15:03:08;99830.96;;;29.73;49.46
51530;BME280;37613;51.788;21.582;2022-08-18T15:07:09;99827.80;;;29.70;49.17
51530;BME280;37613;51.788;21.582;2022-08-18T15:11:11;99831.88;;;29.66;49.43
51530;BME280;37613;51.788;21.582;2022-08-18T15:15:13;99832.98;;;29.60;49.35
51530;BME280;37613;51.788;21.582;2022-08-18T15:19:15;99834.56;;;29.59;49.46
51530;BME280;37613;51.788;21.582;2022-08-18T15:23:17;99835.98;;;29.53;48.74
51530;BME280;37613;51.788;21.582;2022-08-18T15:27:38;99835.20;;;29.46;48.66
51530;BME280;37613;51.788;21.582;2022-08-18T15:31:40;99841.98;;;29.46;49.06
51530;BME280;37613;51.788;21.582;2022-08-18T15:35:43;99835.38;;;29.44;48.73
51530;BME280;37613;51.788;21.582;2022-08-18T15:39:45;99829.22;;;29.35;49.12
51530;BME280;37613;51.788;21.582;2022-08-18T15:43:46;99831.56;;;29.30;49.28
51530;BME280;37613;51.788;21.582;2022-08-18T15:47:48;99829.84;;;29.26;49.52
51530;BME280;37613;51.788;21.582;2022-08-18T15:51:50;99831.32;;;29.19;49.74
51530;BME280;37613;51.788;21.582;2022-08-18T15:55:52;99826.94;;;29.12;49.86
51530;BME280;37613;51.788;21.582;2022-08-18T15:59:55;99824.08;;;29.08;50.04
51530;BME280;37613;51.788;21.582;2022-08-18T16:03:57;99827.20;;;29.02;50.43
51530;BME280;37613;51.788;21.582;2022-08-18T16:08:00;99824.27;;;28.95;50.61
51530;BME280;37613;51.788;21.582;2022-08-18T16:12:02;99816.73;;;28.84;50.72
51530;BME280;37613;51.788;21.582;2022-08-18T16:16:09;99806.19;;;28.72;51.16
51530;BME280;37613;51.788;21.582;2022-08-18T16:20:12;99799.50;;;28.54;51.23
51530;BME280;37613;51.788;21.582;2022-08-18T16:24:14;99788.73;;;28.39;51.83
51530;BME280;37613;51.788;21.582;2022-08-18T16:28:16;99786.27;;;28.28;52.22
51530;BME280;37613;51.788;21.582;2022-08-18T16:32:18;99792.67;;;28.20;52.46
51530;BME280;37613;51.788;21.582;2022-08-18T16:36:21;99801.39;;;28.14;52.76
51530;BME280;37613;51.788;21.582;2022-08-18T16:40:26;99806.45;;;28.09;53.39
51530;BME280;37613;51.788;21.582;2022-08-18T16:44:30;99806.08;;;28.01;53.51
51530;BME280;37613;51.788;21.582;2022-08-18T16:48:33;99809.31;;;27.96;53.69
51530;BME280;37613;51.788;21.582;2022-08-18T16:52:35;99813.73;;;27.92;53.91
51530;BME280;37613;51.788;21.582;2022-08-18T16:56:37;99815.27;;;27.85;54.28
51530;BME280;37613;51.788;21.582;2022-08-18T17:00:39;99817.27;;;27.76;54.19
51530;BME280;37613;51.788;21.582;2022-08-18T17:05:13;99823.98;;;27.66;54.59
51530;BME280;37613;51.788;21.582;2022-08-18T17:09:17;99831.44;;;27.57;54.68
51530;BME280;37613;51.788;21.582;2022-08-18T17:13:19;99835.19;;;27.48;55.21
51530;BME280;37613;51.788;21.582;2022-08-18T17:17:21;99841.58;;;27.36;55.70
51530;BME280;37613;51.788;21.582;2022-08-18T17:21:26;99849.02;;;27.17;56.23
51530;BME280;37613;51.788;21.582;2022-08-18T17:25:30;99853.25;;;26.96;56.83
51530;BME280;37613;51.788;21.582;2022-08-18T17:29:36;99858.05;;;26.75;57.50
51530;BME280;37613;51.788;21.582;2022-08-18T17:33:44;99858.86;;;26.46;57.76
51530;BME280;37613;51.788;21.582;2022-08-18T17:38:04;99856.17;;;26.22;58.24
51530;BME280;37613;51.788;21.582;2022-08-18T17:42:08;99859.95;;;25.92;58.77
51530;BME280;37613;51.788;21.582;2022-08-18T17:46:32;99860.71;;;25.57;59.82
51530;BME280;37613;51.788;21.582;2022-08-18T17:55:15;99864.34;;;25.03;60.72
51530;BME280;37613;51.788;21.582;2022-08-18T18:00:07;99851.45;;;24.79;61.47
51530;BME280;37613;51.788;21.582;2022-08-18T18:03:48;99843.65;;;24.55;63.15
51530;BME280;37613;51.788;21.582;2022-08-18T18:07:57;99842.51;;;24.42;62.86
51530;BME280;37613;51.788;21.582;2022-08-18T18:12:19;99846.55;;;24.36;63.36
51530;BME280;37613;51.788;21.582;2022-08-18T18:16:28;99845.04;;;24.30;63.49
51530;BME280;37613;51.788;21.582;2022-08-18T18:20:37;99845.85;;;24.25;64.31
51530;BME280;37613;51.788;21.582;2022-08-18T18:24:56;99843.59;;;24.20;65.06
51530;BME280;37613;51.788;21.582;2022-08-18T18:33:21;99830.42;;;24.04;65.24
51530;BME280;37613;51.788;21.582;2022-08-18T18:37:27;99842.16;;;23.97;65.92
51530;BME280;37613;51.788;21.582;2022-08-18T18:41:30;99836.29;;;23.90;66.14
51530;BME280;37613;51.788;21.582;2022-08-18T18:45:31;99832.53;;;23.80;66.58
51530;BME280;37613;51.788;21.582;2022-08-18T18:49:44;99827.16;;;23.69;66.79
51530;BME280;37613;51.788;21.582;2022-08-18T18:59:01;99839.27;;;23.50;67.39
51530;BME280;37613;51.788;21.582;2022-08-18T19:03:27;99845.77;;;23.41;67.67
51530;BME280;37613;51.788;21.582;2022-08-18T19:12:26;99842.50;;;23.23;68.64
51530;BME280;37613;51.788;21.582;2022-08-18T19:16:39;99856.50;;;23.16;68.71
51530;BME280;37613;51.788;21.582;2022-08-18T19:20:46;99855.29;;;23.10;69.11
51530;BME280;37613;51.788;21.582;2022-08-18T19:24:55;99855.13;;;22.99;69.39
51530;BME280;37613;51.788;21.582;2022-08-18T19:29:04;99862.55;;;22.89;69.31
51530;BME280;37613;51.788;21.582;2022-08-18T19:33:07;99864.94;;;22.79;69.56
51530;BME280;37613;51.788;21.582;2022-08-18T19:37:16;99872.60;;;22.69;69.72
51530;BME280;37613;51.788;21.582;2022-08-18T19:46:26;99885.67;;;22.49;70.13
51530;BME280;37613;51.788;21.582;2022-08-18T19:50:48;99892.61;;;22.41;70.35
51530;BME280;37613;51.788;21.582;2022-08-18T19:55:13;99891.22;;;22.34;70.59
51530;BME280;37613;51.788;21.582;2022-08-18T19:59:42;99896.30;;;22.27;70.94
51530;BME280;37613;51.788;21.582;2022-08-18T20:13:24;99901.34;;;22.01;71.69
51530;BME280;37613;51.788;21.582;2022-08-18T20:17:21;99884.70;;;21.92;72.09
51530;BME280;37613;51.788;21.582;2022-08-18T20:21:31;99878.23;;;21.87;72.48
51530;BME280;37613;51.788;21.582;2022-08-18T20:25:40;99881.52;;;21.82;73.12
51530;BME280;37613;51.788;21.582;2022-08-18T20:29:44;99878.91;;;21.80;72.90
51530;BME280;37613;51.788;21.582;2022-08-18T20:34:07;99883.28;;;21.78;73.22
51530;BME280;37613;51.788;21.582;2022-08-18T20:38:30;99887.46;;;21.75;73.21
51530;BME280;37613;51.788;21.582;2022-08-18T20:42:44;99881.35;;;21.74;73.48
51530;BME280;37613;51.788;21.582;2022-08-18T20:51:09;99879.93;;;21.60;73.79
51530;BME280;37613;51.788;21.582;2022-08-18T20:55:28;99885.10;;;21.53;73.88
51530;BME280;37613;51.788;21.582;2022-08-18T20:59:39;99890.13;;;21.47;74.10
51530;BME280;37613;51.788;21.582;2022-08-18T21:03:45;99887.58;;;21.42;74.17
51530;BME280;37613;51.788;21.582;2022-08-18T21:12:20;99877.70;;;21.29;74.54
51530;BME280;37613;51.788;21.582;2022-08-18T21:20:26;99883.00;;;21.15;75.10
51530;BME280;37613;51.788;21.582;2022-08-18T21:24:42;99882.87;;;21.11;75.33
51530;BME280;37613;51.788;21.582;2022-08-18T21:28:54;99876.95;;;21.07;75.73
51530;BME280;37613;51.788;21.582;2022-08-18T21:32:57;99865.75;;;21.06;75.71
51530;BME280;37613;51.788;21.582;2022-08-18T21:37:03;99848.39;;;21.06;75.96
51530;BME280;37613;51.788;21.582;2022-08-18T21:41:11;99836.67;;;21.06;76.35
51530;BME280;37613;51.788;21.582;2022-08-18T21:45:19;99836.19;;;21.05;76.45
51530;BME280;37613;51.788;21.582;2022-08-18T21:49:26;99830.77;;;21.05;77.19
51530;BME280;37613;51.788;21.582;2022-08-18T21:53:31;99827.73;;;21.04;77.80
51530;BME280;37613;51.788;21.582;2022-08-18T22:02:19;99832.19;;;20.98;78.26
51530;BME280;37613;51.788;21.582;2022-08-18T22:06:27;99831.31;;;20.93;78.43
51530;BME280;37613;51.788;21.582;2022-08-18T22:10:31;99822.17;;;20.84;78.40
51530;BME280;37613;51.788;21.582;2022-08-18T22:14:51;99824.41;;;20.78;78.24
51530;BME280;37613;51.788;21.582;2022-08-18T22:27:48;99799.65;;;20.68;78.78
51530;BME280;37613;51.788;21.582;2022-08-18T22:31:52;99800.65;;;20.69;78.45
51530;BME280;37613;51.788;21.582;2022-08-18T22:35:55;99803.01;;;20.71;78.67
51530;BME280;37613;51.788;21.582;2022-08-18T22:40:07;99805.85;;;20.73;78.65
51530;BME280;37613;51.788;21.582;2022-08-18T22:44:10;99811.05;;;20.72;78.81
51530;BME280;37613;51.788;21.582;2022-08-18T22:48:12;99806.65;;;20.72;79.14
51530;BME280;37613;51.788;21.582;2022-08-18T22:52:39;99802.54;;;20.70;79.28
51530;BME280;37613;51.788;21.582;2022-08-18T22:56:41;99796.41;;;20.67;79.27
51530;BME280;37613;51.788;21.582;2022-08-18T23:00:43;99803.05;;;20.63;79.32
51530;BME280;37613;51.788;21.582;2022-08-18T23:04:46;99804.23;;;20.56;79.36
51530;BME280;37613;51.788;21.582;2022-08-18T23:08:48;99807.43;;;20.51;79.33
51530;BME280;37613;51.788;21.582;2022-08-18T23:12:50;99802.92;;;20.49;79.40
51530;BME280;37613;51.788;21.582;2022-08-18T23:16:52;99805.85;;;20.46;79.39
51530;BME280;37613;51.788;21.582;2022-08-18T23:20:55;99808.04;;;20.45;79.57
51530;BME280;37613;51.788;21.582;2022-08-18T23:24:59;99807.41;;;20.45;79.54
51530;BME280;37613;51.788;21.582;2022-08-18T23:29:02;99809.80;;;20.43;79.69
51530;BME280;37613;51.788;21.582;2022-08-18T23:33:06;99808.94;;;20.41;79.62
51530;BME280;37613;51.788;21.582;2022-08-18T23:37:10;99809.25;;;20.38;79.79
51530;BME280;37613;51.788;21.582;2022-08-18T23:41:13;99818.99;;;20.36;79.77
51530;BME280;37613;51.788;21.582;2022-08-18T23:45:19;99825.13;;;20.33;79.85
51530;BME280;37613;51.788;21.582;2022-08-18T23:49:24;99825.89;;;20.30;79.85
51530;BME280;37613;51.788;21.582;2022-08-18T23:53:27;99829.70;;;20.26;79.81
51530;BME280;37613;51.788;21.582;2022-08-18T23:57:29;99831.66;;;20.21;79.90
